aviador You're here:

KNBC Decoded Metar

BEAUFORT in SC, USA
Report Time2017-06-24 16:56:00
UTC Time2017-06-24 17:13:38
Flight Rules vfr VFR
Wind220° at 10 Gusting to 15 kt
W.Decomp.*RWY 23: 10.0 kt HW 0.9 kt LCW
RWY 18: 7.1 kt HW 7.1 kt RCW
RWY 14: 0.9 kt HW 10.0 kt RCW
W.Rank220° ranks 10
Current wind is above 220° avg. (6.0)
Visibility9999 m
Phenomena:N/A
Clouds:N/A
Expected CloudBase > 4,000 ft AGL from Temp-Dew spread
CeilingNone
Temp32°C (ISA +17)
Dew Point22°C (55% RH)
Heat Index35.6°C
QNH1017 hPa
Density Alt2,198 ft
Elevation37 ft
Report Wrong Elevation
Raw Report
KNBC 241656Z AUTO 22010G15KT 10SM CLR 32/22 A3003 RMK AO2 SLP167
T03220222 PWINO=

Extra information for KNBC:More info

Metar Taf Metar & Taf Last 4 Metars F.Rules Stats Wind Profile Meteogram Temp Stats Airport Information Weather charts Add Link Nearby VenuesMetar ALERT Operation Metar Decoded Social comments

AIRNAV info for KNBC